East Dundee, Illinois
Current Conditions -  °F | °C
As of 9:52 AM on Thursday 18 Dec 2014 (Local Time) from KDPA Reporting Station
Clear Clear  
Wind Chill: 17°   Ceiling: Unl
Heat Index: 24°   Visibility: 9mi
Dew Point: 16°   Wind: 6mph
Humidity: 71%   Direction: 250°WSW
Pressure: 30.3"   Gusts: NA
Location:  42.1081°N, 88.3234°W
Report Text: KDPA 181552Z 25005KT 9SM CLR M04/M09 A3030 RMK AO2 SLP273 T10441089
Loading
Personal Weather Stations






























Interactive Weather Map New forecast layout! Learn more

10-Day Weather Forecast

Advertisements
Track Severe Weather on mobile